Time;durP1;ratioP1;P1;durP2;ratioP2;P2;SDS_P1;SDS_P2;PMS_P1;PMS_P2;Temp;Humidity;BMP_temperature;BMP_pressure;BME280_temperature;BME280_humidity;BME280_pressure;Samples;Min_cycle;Max_cycle;Signal;HPM_P1;HPM_P2
2022/03/23 00:00:15;;;;;;;37.70;23.40;;;;;;;3.96;100.00;102888.19;5282297;28;20495;-79
2022/03/23 00:02:46;;;;;;;43.22;26.85;;;;;;;4.00;100.00;102894.25;5278915;28;20041;-79
2022/03/23 00:05:18;;;;;;;41.00;25.85;;;;;;;3.90;100.00;102896.31;5280829;28;20045;-79
2022/03/23 00:07:49;;;;;;;39.60;24.45;;;;;;;3.78;100.00;102894.91;5276078;28;20395;-79
2022/03/23 00:10:21;;;;;;;40.58;25.45;;;;;;;3.76;100.00;102895.88;5281601;28;20075;-79
2022/03/23 00:12:52;;;;;;;39.28;25.23;;;;;;;3.70;100.00;102899.59;5281332;28;20029;-79
2022/03/23 00:15:24;;;;;;;44.10;28.75;;;;;;;3.85;100.00;102892.94;5263513;28;20021;-79
2022/03/23 00:17:55;;;;;;;36.38;25.17;;;;;;;3.92;100.00;102897.09;5279338;28;20025;-79
2022/03/23 00:20:27;;;;;;;44.38;27.85;;;;;;;3.74;100.00;102890.63;5280831;28;20025;-79
2022/03/23 00:22:58;;;;;;;38.88;24.13;;;;;;;3.74;100.00;102897.72;5281403;28;20493;-79
2022/03/23 00:25:30;;;;;;;40.92;26.88;;;;;;;3.67;100.00;102896.16;5280944;28;20087;-79
2022/03/23 00:28:03;;;;;;;37.40;24.65;;;;;;;3.46;100.00;102895.91;5280667;28;20025;-79
2022/03/23 00:30:35;;;;;;;33.33;23.25;;;;;;;3.54;100.00;102904.47;5262727;28;20132;-79
2022/03/23 00:33:06;;;;;;;40.63;25.70;;;;;;;3.30;100.00;102900.78;5281494;28;20555;-79
2022/03/23 00:35:37;;;;;;;42.67;26.48;;;;;;;3.37;100.00;102899.69;5281379;28;20028;-79
2022/03/23 00:38:09;;;;;;;38.63;26.77;;;;;;;3.22;100.00;102892.22;5281001;28;20461;-79
2022/03/23 00:40:41;;;;;;;36.50;24.35;;;;;;;3.13;100.00;102903.88;5280757;28;20060;-79
2022/03/23 00:43:13;;;;;;;47.60;25.83;;;;;;;3.16;100.00;102884.50;5278553;28;20021;-78
2022/03/23 00:45:44;;;;;;;44.58;26.15;;;;;;;3.07;100.00;102893.53;5281737;28;20511;-79
2022/03/23 00:48:15;;;;;;;44.78;27.55;;;;;;;2.93;100.00;102896.56;5261948;28;20057;-79
2022/03/23 00:50:47;;;;;;;42.28;25.80;;;;;;;2.83;100.00;102900.34;5280902;28;21859;-79
2022/03/23 00:53:18;;;;;;;37.72;25.02;;;;;;;2.87;100.00;102899.34;5281080;28;20017;-79
2022/03/23 00:55:50;;;;;;;36.40;23.40;;;;;;;2.86;100.00;102904.66;5281098;28;20124;-79
2022/03/23 00:58:21;;;;;;;46.25;27.50;;;;;;;2.82;100.00;102893.34;5280058;28;20021;-79
2022/03/23 01:00:53;;;;;;;40.67;27.23;;;;;;;2.64;100.00;102900.81;5280876;28;20090;-79
2022/03/23 01:03:25;;;;;;;35.08;25.35;;;;;;;2.70;100.00;102894.56;5281070;28;20051;-79
2022/03/23 01:05:56;;;;;;;40.42;26.95;;;;;;;2.68;100.00;102901.59;5262955;28;20105;-79
2022/03/23 01:08:28;;;;;;;36.78;24.33;;;;;;;2.52;100.00;102902.94;5262433;28;20049;-79
2022/03/23 01:10:59;;;;;;;35.08;24.58;;;;;;;2.52;100.00;102900.28;5262293;28;20107;-79
2022/03/23 01:13:30;;;;;;;44.72;27.08;;;;;;;2.59;100.00;102891.31;5279280;28;20044;-78
2022/03/23 01:16:02;;;;;;;42.30;28.40;;;;;;;2.61;100.00;102894.78;5280978;28;20032;-78
2022/03/23 01:18:33;;;;;;;43.38;26.92;;;;;;;2.33;100.00;102892.00;5280513;28;20482;-78
2022/03/23 01:21:04;;;;;;;44.67;26.40;;;;;;;2.49;100.00;102898.63;5280890;28;20039;-78
2022/03/23 01:23:36;;;;;;;43.25;27.17;;;;;;;2.36;100.00;102900.69;5280238;28;20025;-79
2022/03/23 01:26:07;;;;;;;33.95;23.42;;;;;;;2.35;100.00;102898.97;5279944;28;20017;-78
2022/03/23 01:28:39;;;;;;;38.00;26.88;;;;;;;2.42;100.00;102894.38;5261920;28;20033;-79
2022/03/23 01:31:10;;;;;;;43.67;28.33;;;;;;;2.57;100.00;102893.13;5282004;28;20048;-79
2022/03/23 01:33:41;;;;;;;38.50;25.02;;;;;;;2.54;100.00;102883.56;5283836;28;20385;-79
2022/03/23 01:36:12;;;;;;;54.30;29.23;;;;;;;2.54;100.00;102890.56;5283812;28;20059;-79
2022/03/23 01:38:44;;;;;;;41.72;26.58;;;;;;;2.36;100.00;102884.88;5280318;28;20056;-79
2022/03/23 01:41:15;;;;;;;37.38;24.20;;;;;;;2.30;100.00;102887.69;5282666;28;20025;-78
2022/03/23 01:43:47;;;;;;;42.97;26.13;;;;;;;2.15;100.00;102880.16;5277860;28;20025;-78
2022/03/23 01:46:20;;;;;;;45.10;27.58;;;;;;;2.21;100.00;102877.34;5283762;28;20063;-78
2022/03/23 01:48:51;;;;;;;43.65;25.48;;;;;;;2.12;100.00;102877.59;5283210;28;20506;-78
2022/03/23 01:51:23;;;;;;;40.13;23.60;;;;;;;2.02;100.00;102880.47;5285103;28;20025;-78
2022/03/23 01:53:54;;;;;;;39.92;26.02;;;;;;;1.96;100.00;102874.47;5284640;28;20032;-78
2022/03/23 01:56:26;;;;;;;44.85;25.55;;;;;;;1.81;100.00;102873.94;5284341;28;20036;-78
2022/03/23 01:58:57;;;;;;;48.80;29.58;;;;;;;1.82;100.00;102877.44;5283065;28;20021;-78
2022/03/23 02:01:29;;;;;;;47.15;27.77;;;;;;;1.75;100.00;102868.81;5284425;28;20406;-78
2022/03/23 02:04:00;;;;;;;49.15;28.05;;;;;;;1.69;100.00;102874.22;5283828;28;20108;-77
2022/03/23 02:06:32;;;;;;;40.85;25.98;;;;;;;1.81;100.00;102873.09;5284669;28;20071;-77
2022/03/23 02:09:04;;;;;;;39.05;23.88;;;;;;;1.73;100.00;102869.75;5283982;28;20021;-78
2022/03/23 02:11:36;;;;;;;42.35;25.52;;;;;;;1.57;100.00;102870.09;5284138;28;20029;-78
2022/03/23 02:14:09;;;;;;;39.53;24.60;;;;;;;1.63;100.00;102874.34;5283056;28;20021;-78
2022/03/23 02:16:45;;;;;;;47.58;26.55;;;;;;;1.74;100.00;102876.78;5284488;28;20036;-78
2022/03/23 02:19:19;;;;;;;45.60;26.60;;;;;;;1.64;100.00;102860.31;5283261;28;20044;-78
2022/03/23 02:21:54;;;;;;;40.92;27.48;;;;;;;1.67;100.00;102870.78;5283723;28;20151;-78
2022/03/23 02:24:30;;;;;;;43.65;27.80;;;;;;;1.55;100.00;102874.53;5282092;28;20094;-78
2022/03/23 02:27:01;;;;;;;43.97;25.70;;;;;;;1.50;100.00;102874.63;5281618;28;20115;-78
2022/03/23 02:29:34;;;;;;;40.42;25.70;;;;;;;1.39;100.00;102879.28;5282508;28;20057;-78
2022/03/23 02:32:05;;;;;;;40.42;26.33;;;;;;;1.34;100.00;102877.66;5264320;28;20029;-78
2022/03/23 02:34:36;;;;;;;41.67;25.67;;;;;;;1.20;100.00;102870.91;5282701;28;20086;-78
2022/03/23 02:37:08;;;;;;;39.17;23.23;;;;;;;1.27;100.00;102876.91;5282159;28;20048;-78
2022/03/23 02:39:40;;;;;;;42.72;27.10;;;;;;;1.21;100.00;102859.50;5282004;28;20132;-78
2022/03/23 02:42:11;;;;;;;44.90;27.27;;;;;;;1.20;100.00;102863.03;5281827;28;20029;-78
2022/03/23 02:44:42;;;;;;;45.58;27.73;;;;;;;1.06;100.00;102871.19;5282617;28;20017;-78
2022/03/23 02:47:14;;;;;;;38.63;26.05;;;;;;;0.98;100.00;102870.47;5263809;28;20115;-78
2022/03/23 02:49:45;;;;;;;46.05;25.98;;;;;;;1.02;100.00;102874.78;5280235;28;20485;-78
2022/03/23 02:52:16;;;;;;;43.33;26.65;;;;;;;0.93;100.00;102875.84;5282411;28;20029;-78
2022/03/23 03:03:50;;;;;;;50.95;29.83;;;;;;;1.01;100.00;102880.94;5279141;28;20393;-78
2022/03/23 03:06:21;;;;;;;40.58;23.92;;;;;;;0.97;100.00;102875.78;5282685;28;20079;-78
2022/03/23 03:08:52;;;;;;;48.80;28.17;;;;;;;1.08;100.00;102873.78;5282445;28;20503;-78
2022/03/23 03:11:25;;;;;;;43.17;26.48;;;;;;;1.08;100.00;102885.16;5283139;28;20461;-78
2022/03/23 03:13:56;;;;;;;53.70;31.23;;;;;;;1.31;100.00;102882.09;5263029;28;20032;-78
2022/03/23 03:16:27;;;;;;;52.63;31.02;;;;;;;1.13;100.00;102879.81;5282497;28;20021;-78
2022/03/23 03:18:59;;;;;;;43.60;26.08;;;;;;;1.12;100.00;102880.72;5282488;28;20029;-78
2022/03/23 03:21:30;;;;;;;45.10;27.10;;;;;;;1.07;100.00;102882.56;5281212;28;20021;-78
2022/03/23 03:24:02;;;;;;;48.83;31.00;;;;;;;1.03;100.00;102887.00;5281654;28;20037;-78
2022/03/23 03:26:34;;;;;;;45.70;26.33;;;;;;;0.97;100.00;102883.66;5282119;28;20123;-78
2022/03/23 03:29:05;;;;;;;46.25;28.80;;;;;;;0.93;100.00;102878.47;5281621;28;20050;-78
2022/03/23 03:31:36;;;;;;;43.83;27.13;;;;;;;0.82;100.00;102877.78;5266460;28;20389;-78
2022/03/23 03:34:08;;;;;;;53.33;29.10;;;;;;;0.88;100.00;102890.81;5284609;28;20053;-78
2022/03/23 03:36:41;;;;;;;51.22;29.05;;;;;;;0.93;100.00;102894.22;5266805;28;20115;-78
2022/03/23 03:39:12;;;;;;;50.08;27.67;;;;;;;0.92;100.00;102889.00;5285054;28;20045;-78
2022/03/23 03:41:43;;;;;;;54.92;31.80;;;;;;;0.86;100.00;102889.09;5285119;28;20106;-78
2022/03/23 03:44:14;;;;;;;47.38;28.30;;;;;;;0.73;100.00;102886.72;5264431;28;20061;-79
2022/03/23 03:46:46;;;;;;;48.85;30.27;;;;;;;0.67;100.00;102893.88;5282180;28;20029;-80
2022/03/23 03:49:18;;;;;;;51.72;29.83;;;;;;;0.44;100.00;102886.38;5282387;28;20389;-79
2022/03/23 03:51:49;;;;;;;51.55;32.30;;;;;;;0.72;100.00;102890.25;5283375;28;20029;-79
2022/03/23 03:54:20;;;;;;;55.63;33.45;;;;;;;0.73;100.00;102894.59;5281947;28;20039;-79
2022/03/23 03:56:52;;;;;;;44.53;27.40;;;;;;;0.51;100.00;102891.50;5281605;28;20078;-79
2022/03/23 03:59:23;;;;;;;60.35;34.67;;;;;;;0.81;100.00;102899.72;5263434;28;20028;-78
2022/03/23 04:01:55;;;;;;;63.10;37.33;;;;;;;0.81;100.00;102894.47;5281008;28;20032;-79
2022/03/23 04:04:26;;;;;;;57.42;34.10;;;;;;;1.00;100.00;102891.47;5281559;28;20039;-79
2022/03/23 04:06:58;;;;;;;55.85;34.83;;;;;;;0.91;100.00;102887.25;5281602;28;20116;-79
2022/03/23 04:09:29;;;;;;;52.05;34.15;;;;;;;0.83;100.00;102887.41;5282432;28;20057;-79
2022/03/23 04:12:00;;;;;;;59.65;35.00;;;;;;;0.94;100.00;102895.94;5278948;28;20094;-78
2022/03/23 04:14:31;;;;;;;53.45;34.85;;;;;;;1.03;100.00;102894.03;5281337;28;20029;-79
2022/03/23 04:17:03;;;;;;;66.75;36.35;;;;;;;1.32;100.00;102898.72;5279710;28;20025;-79
2022/03/23 04:19:34;;;;;;;57.78;35.13;;;;;;;1.27;100.00;102885.66;5263601;28;20041;-79
2022/03/23 04:22:06;;;;;;;58.40;35.17;;;;;;;1.41;100.00;102890.63;5281980;28;20013;-79
2022/03/23 04:24:37;;;;;;;66.93;36.63;;;;;;;1.45;100.00;102896.69;5282111;28;20125;-79
2022/03/23 04:27:08;;;;;;;64.82;35.92;;;;;;;1.61;100.00;102895.44;5281311;28;20051;-78
2022/03/23 04:29:40;;;;;;;49.70;32.53;;;;;;;1.67;100.00;102891.81;5281723;28;20509;-79
2022/03/23 04:32:11;;;;;;;52.40;31.75;;;;;;;1.55;100.00;102900.00;5281862;28;20338;-79
2022/03/23 04:34:42;;;;;;;44.55;27.92;;;;;;;1.71;100.00;102896.09;5281704;28;20029;-79
2022/03/23 04:37:14;;;;;;;57.88;36.08;;;;;;;1.59;100.00;102888.50;5281203;28;20123;-79
2022/03/23 04:39:45;;;;;;;47.38;29.30;;;;;;;1.70;100.00;102905.78;5282379;28;20405;-78
2022/03/23 04:42:16;;;;;;;58.97;35.63;;;;;;;1.61;100.00;102897.22;5281147;28;20151;-79
2022/03/23 04:44:47;;;;;;;52.58;33.95;;;;;;;1.70;100.00;102904.88;5281882;28;20029;-79
2022/03/23 04:47:19;;;;;;;58.15;34.30;;;;;;;1.60;100.00;102906.03;5281164;28;20394;-79
2022/03/23 04:49:50;;;;;;;56.75;34.42;;;;;;;1.65;100.00;102899.75;5282027;28;20405;-79
2022/03/23 04:52:21;;;;;;;56.50;35.03;;;;;;;1.65;100.00;102909.41;5281303;28;20670;-79
2022/03/23 04:54:56;;;;;;;59.15;33.75;;;;;;;1.60;100.00;102904.25;5281813;28;20036;-79
2022/03/23 04:57:28;;;;;;;53.75;32.63;;;;;;;1.63;100.00;102912.06;5262400;28;20107;-79
2022/03/23 04:59:59;;;;;;;59.00;33.60;;;;;;;1.72;100.00;102908.38;5281694;28;20025;-79
2022/03/23 05:02:30;;;;;;;67.38;34.53;;;;;;;1.75;100.00;102912.69;5281508;28;20564;-79
2022/03/23 05:05:03;;;;;;;58.65;35.35;;;;;;;1.80;100.00;102918.72;5283135;28;20033;-79
2022/03/23 05:07:35;;;;;;;58.70;35.63;;;;;;;1.82;100.00;102927.44;5282365;28;20088;-79
2022/03/23 05:10:08;;;;;;;55.03;32.22;;;;;;;1.79;100.00;102917.84;5285917;28;20017;-78
2022/03/23 05:12:42;;;;;;;48.22;30.10;;;;;;;1.91;100.00;102927.22;5284165;28;20033;-79
2022/03/23 05:15:14;;;;;;;43.53;27.88;;;;;;;1.74;100.00;102927.63;5286769;28;20033;-78
2022/03/23 05:17:46;;;;;;;48.38;28.92;;;;;;;1.58;100.00;102929.72;5285907;28;20489;-79
2022/03/23 05:20:18;;;;;;;58.78;34.05;;;;;;;1.46;100.00;102930.84;5287654;28;20036;-80
2022/03/23 05:22:49;;;;;;;45.30;28.17;;;;;;;1.38;100.00;102934.53;5287802;28;20025;-78
2022/03/23 05:25:21;;;;;;;46.65;29.90;;;;;;;1.17;100.00;102925.31;5288024;28;20048;-78
2022/03/23 05:27:52;;;;;;;51.67;30.15;;;;;;;1.05;100.00;102927.31;5287285;28;20033;-78
2022/03/23 05:30:24;;;;;;;54.58;30.27;;;;;;;1.00;100.00;102928.25;5288930;28;20033;-78
2022/03/23 05:32:55;;;;;;;50.42;30.60;;;;;;;0.93;100.00;102932.78;5291573;28;20377;-78
2022/03/23 05:35:26;;;;;;;45.72;30.33;;;;;;;0.71;100.00;102935.78;5288315;28;20051;-79
2022/03/23 05:37:59;;;;;;;45.58;26.80;;;;;;;0.78;100.00;102940.94;5286064;28;20041;-79
2022/03/23 05:40:30;;;;;;;56.85;33.08;;;;;;;0.71;100.00;102946.31;5284034;28;20037;-79
2022/03/23 05:43:01;;;;;;;50.45;32.08;;;;;;;0.66;100.00;102945.50;5283874;28;20025;-79
2022/03/23 05:45:33;;;;;;;49.85;29.80;;;;;;;0.56;100.00;102922.94;5285741;28;20048;-78
2022/03/23 05:48:05;;;;;;;51.92;32.38;;;;;;;0.61;100.00;102938.63;5268852;28;20048;-79
2022/03/23 05:50:36;;;;;;;45.70;29.88;;;;;;;0.62;100.00;102927.22;5287863;28;20084;-79
2022/03/23 05:53:08;;;;;;;51.35;31.33;;;;;;;0.75;100.00;102947.09;5287955;28;20052;-79
2022/03/23 05:55:39;;;;;;;47.72;28.88;;;;;;;0.70;100.00;102946.31;5287802;28;20496;-79
2022/03/23 05:58:11;;;;;;;63.50;34.58;;;;;;;0.74;100.00;102945.41;5289854;28;20029;-78
2022/03/23 06:00:43;;;;;;;57.80;33.88;;;;;;;0.72;100.00;102952.44;5286907;28;20021;-78
2022/03/23 06:03:14;;;;;;;53.88;30.58;;;;;;;0.73;100.00;102952.38;5287341;28;20166;-78
2022/03/23 06:05:45;;;;;;;44.42;26.88;;;;;;;0.75;100.00;102955.88;5286662;28;20456;-79
2022/03/23 06:08:16;;;;;;;55.58;33.75;;;;;;;0.82;100.00;102951.34;5284091;28;20033;-79
2022/03/23 06:10:48;;;;;;;50.53;30.83;;;;;;;0.81;100.00;102951.38;5283033;28;20028;-78
2022/03/23 06:13:20;;;;;;;51.42;31.25;;;;;;;1.00;100.00;102960.69;5284132;28;20104;-78
2022/03/23 06:15:51;;;;;;;56.10;33.45;;;;;;;0.89;100.00;102958.22;5288807;28;20037;-78
2022/03/23 06:18:23;;;;;;;59.40;34.42;;;;;;;0.96;100.00;102952.88;5298171;28;20073;-78
2022/03/23 06:20:54;;;;;;;55.95;34.55;;;;;;;1.07;100.00;102958.78;5291293;28;20033;-79
2022/03/23 06:23:25;;;;;;;42.78;27.33;;;;;;;1.15;100.00;102966.53;5285732;28;20035;-79
2022/03/23 06:25:57;;;;;;;50.20;28.98;;;;;;;1.13;100.00;102963.94;5285121;28;20056;-79
2022/03/23 06:28:28;;;;;;;47.42;29.15;;;;;;;1.34;100.00;102967.06;5283117;28;20144;-79
2022/03/23 06:31:00;;;;;;;63.45;35.55;;;;;;;1.38;100.00;102953.78;5285077;28;20397;-79
2022/03/23 06:33:31;;;;;;;60.65;34.40;;;;;;;1.48;100.00;102962.38;5284910;28;20025;-79
2022/03/23 06:36:03;;;;;;;58.97;35.72;;;;;;;1.62;100.00;102956.81;5285093;28;20367;-79
2022/03/23 06:38:34;;;;;;;48.58;31.90;;;;;;;1.69;100.00;102967.19;5284342;28;20131;-79
2022/03/23 06:41:07;;;;;;;47.35;30.75;;;;;;;1.81;100.00;102965.19;5284972;28;20017;-79
2022/03/23 06:43:38;;;;;;;62.30;35.50;;;;;;;2.21;100.00;102972.16;5281455;28;20115;-80
2022/03/23 06:46:09;;;;;;;64.07;38.53;;;;;;;2.85;100.00;102980.25;5284783;28;20167;-79
2022/03/23 06:48:41;;;;;;;65.03;38.33;;;;;;;3.55;100.00;102982.69;5284327;28;20013;-79
2022/03/23 06:51:13;;;;;;;57.45;35.20;;;;;;;4.24;100.00;102978.88;5284808;28;20101;-80
2022/03/23 06:53:44;;;;;;;57.75;34.33;;;;;;;4.77;100.00;102975.38;5265709;28;20374;-80
2022/03/23 06:56:16;;;;;;;49.45;32.53;;;;;;;5.15;100.00;102979.31;5283358;28;20024;-80
2022/03/23 06:58:47;;;;;;;54.83;32.58;;;;;;;6.09;100.00;102974.97;5260720;28;20491;-80
2022/03/23 07:01:18;;;;;;;43.17;30.63;;;;;;;6.53;100.00;102977.59;5261229;28;20029;-80
2022/03/23 07:03:49;;;;;;;44.30;29.40;;;;;;;7.27;100.00;102974.41;5280700;28;31039;-80
2022/03/23 07:06:21;;;;;;;44.30;28.92;;;;;;;7.79;100.00;102972.00;5282463;28;20096;-80
2022/03/23 07:11:42;;;;;;;46.35;29.02;;;;;;;8.72;100.00;102972.88;5280395;28;20044;-80
2022/03/23 07:14:13;;;;;;;43.88;29.33;;;;;;;9.09;100.00;102975.31;5263279;28;20079;-80
2022/03/23 07:16:44;;;;;;;46.17;29.42;;;;;;;9.71;100.00;102976.47;5282871;28;20029;-80
2022/03/23 07:19:16;;;;;;;41.85;29.67;;;;;;;9.96;100.00;102976.00;5283624;28;20025;-80
2022/03/23 07:21:48;;;;;;;37.75;28.13;;;;;;;10.14;100.00;102966.94;5283095;28;20025;-80
2022/03/23 07:24:20;;;;;;;45.80;28.00;;;;;;;10.38;100.00;102983.38;5263996;28;20025;-80
2022/03/23 07:26:51;;;;;;;40.97;27.98;;;;;;;11.67;100.00;102981.84;5282829;28;20037;-81
2022/03/23 07:29:22;;;;;;;38.72;27.88;;;;;;;11.62;100.00;102978.59;5280281;28;20037;-79
2022/03/23 07:31:54;;;;;;;40.70;28.75;;;;;;;12.01;100.00;102980.56;5281921;28;20070;-80
2022/03/23 07:34:25;;;;;;;41.70;28.23;;;;;;;12.63;100.00;102981.84;5282462;28;20025;-81
2022/03/23 07:36:56;;;;;;;34.03;24.77;;;;;;;13.36;100.00;102985.81;5282726;28;20056;-81
2022/03/23 07:39:27;;;;;;;43.35;27.27;;;;;;;14.40;100.00;102979.16;5282108;28;20523;-81
2022/03/23 07:42:02;;;;;;;50.35;28.00;;;;;;;14.74;97.75;102980.16;5282316;28;20378;-83
2022/03/23 07:44:33;;;;;;;37.28;25.67;;;;;;;15.08;87.36;102983.78;5293852;28;20333;-81
2022/03/23 07:47:10;;;;;;;37.10;27.05;;;;;;;16.75;78.92;102979.16;5267837;28;20047;-82
2022/03/23 07:49:42;;;;;;;41.53;26.58;;;;;;;17.13;73.28;102990.38;5283397;28;20032;-82
2022/03/23 07:52:13;;;;;;;33.13;25.95;;;;;;;17.24;65.84;102987.56;5298398;28;20028;-82
2022/03/23 07:54:45;;;;;;;43.63;27.13;;;;;;;17.38;63.21;102997.16;5304706;28;20028;-83
2022/03/23 07:57:16;;;;;;;37.28;26.48;;;;;;;17.16;58.71;103003.56;5279800;28;20027;-83
2022/03/23 07:59:48;;;;;;;39.90;26.88;;;;;;;17.86;53.86;103001.88;5276447;28;20013;-82
2022/03/23 08:02:19;;;;;;;39.95;26.48;;;;;;;17.81;49.53;103004.16;5267750;28;20037;-83
2022/03/23 08:04:50;;;;;;;39.60;26.88;;;;;;;19.00;45.43;102998.66;5273270;28;20363;-83
2022/03/23 08:07:22;;;;;;;37.45;24.45;;;;;;;18.95;42.27;103000.97;5266871;28;20037;-84
2022/03/23 08:09:53;;;;;;;35.30;26.40;;;;;;;19.57;44.79;103001.34;5283269;28;20033;-84
2022/03/23 08:12:25;;;;;;;35.93;26.40;;;;;;;20.00;38.65;103000.69;5261525;28;20156;-83
2022/03/23 08:14:56;;;;;;;39.97;27.65;;;;;;;20.80;37.19;102993.66;5266979;28;20330;-83
2022/03/23 08:17:27;;;;;;;37.10;26.23;;;;;;;20.90;37.94;102994.41;5273892;28;20031;-83
2022/03/23 08:22:49;;;;;;;34.47;25.75;;;;;;;22.27;33.83;102998.94;5263308;28;20120;-83
2022/03/23 08:25:20;;;;;;;34.78;24.77;;;;;;;22.65;34.48;102994.69;5265639;28;20445;-83
2022/03/23 08:27:51;;;;;;;34.30;25.42;;;;;;;23.07;34.59;103003.69;5272922;28;20394;-83
2022/03/23 08:30:24;;;;;;;38.88;26.00;;;;;;;23.56;31.10;102984.47;5282553;28;20025;-83
2022/03/23 08:32:55;;;;;;;38.70;26.70;;;;;;;25.14;28.72;102995.88;5263974;28;20025;-83
2022/03/23 08:35:27;;;;;;;35.65;26.02;;;;;;;24.69;27.51;102998.56;5264088;28;20453;-84
2022/03/23 08:37:58;;;;;;;31.83;25.15;;;;;;;25.01;27.19;103002.00;5282409;28;20037;-83
2022/03/23 08:40:30;;;;;;;33.50;25.65;;;;;;;26.31;26.25;102995.06;5281834;28;20040;-83
2022/03/23 08:43:02;;;;;;;37.72;25.80;;;;;;;26.28;25.63;102995.44;5280084;28;20462;-84
2022/03/23 08:45:35;;;;;;;32.72;24.60;;;;;;;26.44;26.11;102997.06;5263292;28;20531;-84
2022/03/23 08:48:06;;;;;;;31.77;24.02;;;;;;;26.65;25.40;103001.69;5286538;28;20029;-83
2022/03/23 08:50:39;;;;;;;31.45;25.73;;;;;;;26.86;24.63;102996.19;5281390;28;20052;-84
2022/03/23 08:53:10;;;;;;;34.17;25.38;;;;;;;27.40;24.83;102996.53;5281077;28;20029;-82
2022/03/23 08:55:42;;;;;;;35.08;25.92;;;;;;;28.56;22.67;103001.06;5280813;28;20393;-83
2022/03/23 08:58:13;;;;;;;31.42;25.00;;;;;;;28.62;23.11;102990.09;5282440;28;20044;-82
2022/03/23 09:00:45;;;;;;;27.38;24.48;;;;;;;28.18;22.45;103001.66;5278181;28;20029;-83
2022/03/23 09:03:17;;;;;;;36.70;25.98;;;;;;;29.81;20.96;103001.00;5261965;28;20033;-83
2022/03/23 09:05:48;;;;;;;29.23;24.77;;;;;;;30.30;20.84;103001.34;5262770;28;20535;-84
2022/03/23 09:08:19;;;;;;;27.23;24.27;;;;;;;30.57;19.85;102999.22;5280180;28;20401;-83
2022/03/23 09:10:51;;;;;;;28.60;24.27;;;;;;;30.42;20.24;103006.97;5280752;28;20036;-82
2022/03/23 09:13:22;;;;;;;33.45;24.05;;;;;;;29.07;20.70;102996.78;5280066;28;20060;-83
2022/03/23 09:15:53;;;;;;;30.17;24.85;;;;;;;29.61;20.31;103003.81;5281290;28;20064;-83
2022/03/23 09:18:26;;;;;;;31.15;25.30;;;;;;;30.59;20.52;102999.84;5281621;28;20109;-83
2022/03/23 09:20:57;;;;;;;33.33;25.38;;;;;;;31.33;20.16;102999.09;5263091;28;20503;-85
2022/03/23 09:23:28;;;;;;;31.00;24.23;;;;;;;32.11;19.34;103000.22;5281481;28;20024;-82
2022/03/23 09:26:01;;;;;;;27.73;24.83;;;;;;;32.36;19.65;102995.34;5281465;28;20279;-78
2022/03/23 09:28:32;;;;;;;29.38;25.45;;;;;;;32.93;18.94;102992.03;5279111;28;20039;-81
2022/03/23 09:31:04;;;;;;;27.77;24.77;;;;;;;33.07;18.46;102995.38;5278021;28;20030;-83
2022/03/23 09:33:35;;;;;;;27.30;23.67;;;;;;;33.97;17.43;102993.06;5279833;28;20276;-81
2022/03/23 09:37:47;;;;;;;27.42;24.50;;;;;;;33.75;17.08;102995.72;5280118;28;20027;-81
2022/03/23 09:38:58;;;;;;;27.48;22.92;;;;;;;34.94;16.60;102996.63;5278708;28;20041;-82
2022/03/23 09:41:32;;;;;;;26.73;23.93;;;;;;;34.38;15.56;102998.47;5280682;28;20520;-83
2022/03/23 09:44:05;;;;;;;25.73;22.80;;;;;;;34.51;16.38;102994.56;5259968;28;20247;-81
2022/03/23 09:46:36;;;;;;;25.70;22.85;;;;;;;34.43;16.45;102993.03;5297796;28;20040;-82
2022/03/23 09:49:07;;;;;;;26.98;23.63;;;;;;;35.10;15.70;102985.69;5282408;28;20025;-82
2022/03/23 09:51:40;;;;;;;30.58;23.58;;;;;;;35.17;15.80;102984.44;5289821;28;20371;-81
2022/03/23 09:54:11;;;;;;;34.35;23.33;;;;;;;36.98;15.49;102993.34;5284339;28;20047;-82
2022/03/23 09:56:43;;;;;;;27.85;22.13;;;;;;;36.37;15.02;102995.72;5284500;28;20029;-80
2022/03/23 09:59:14;;;;;;;25.00;21.37;;;;;;;38.00;13.89;102992.81;5282778;28;20051;-82
2022/03/23 10:01:51;;;;;;;27.10;22.27;;;;;;;38.24;14.10;102991.44;5283505;28;20759;-82
2022/03/23 10:04:51;;;;;;;22.60;19.77;;;;;;;39.48;13.27;102999.25;5269741;28;20025;-82
2022/03/23 10:07:42;;;;;;;20.65;18.52;;;;;;;39.39;12.95;102995.31;5289100;28;20120;-81
2022/03/23 10:10:19;;;;;;;22.63;20.23;;;;;;;39.57;12.76;102996.66;5281913;28;20152;-82
2022/03/23 10:13:16;;;;;;;26.63;21.35;;;;;;;39.16;14.02;102994.06;5280374;28;20025;-80
2022/03/23 10:16:26;;;;;;;25.95;20.48;;;;;;;37.63;13.86;102995.81;5264715;28;20064;-81
2022/03/23 10:18:59;;;;;;;25.55;21.30;;;;;;;35.46;14.02;102994.50;5263952;28;20036;-81
2022/03/23 10:21:36;;;;;;;23.90;20.02;;;;;;;38.89;12.61;103000.00;5282795;28;20047;-81
2022/03/23 10:24:08;;;;;;;21.98;19.70;;;;;;;35.71;13.32;102992.06;5281289;28;20064;-81
2022/03/23 10:26:41;;;;;;;20.90;18.20;;;;;;;38.98;12.02;102994.69;5283367;28;20040;-81
2022/03/23 10:29:24;;;;;;;20.50;18.33;;;;;;;39.96;11.69;102992.22;5239318;28;20033;-81
2022/03/23 10:32:05;;;;;;;26.23;20.67;;;;;;;36.95;13.41;102991.09;5282254;28;20040;-81
2022/03/23 10:34:47;;;;;;;22.13;19.83;;;;;;;39.12;12.11;102991.00;5283564;28;20029;-81
2022/03/23 10:37:27;;;;;;;21.92;19.75;;;;;;;38.46;12.38;102986.41;5262110;28;20049;-81
2022/03/23 10:40:01;;;;;;;20.88;18.70;;;;;;;39.80;11.15;102983.94;5280979;28;20036;-81
2022/03/23 10:42:35;;;;;;;21.85;19.70;;;;;;;39.21;11.33;102984.84;5281885;28;20892;-82
2022/03/23 10:45:20;;;;;;;20.15;18.02;;;;;;;41.46;10.40;102969.88;5281954;28;20496;-81
2022/03/23 10:47:51;;;;;;;24.70;19.60;;;;;;;40.53;10.60;102979.38;5263016;28;20041;-81
2022/03/23 10:50:24;;;;;;;21.17;19.15;;;;;;;38.86;11.65;102978.25;5282445;28;20035;-81
2022/03/23 10:52:58;;;;;;;20.83;18.60;;;;;;;40.23;10.67;102966.53;5282275;28;20029;-81
2022/03/23 10:55:47;;;;;;;22.40;19.73;;;;;;;39.77;11.44;102978.09;5263697;28;20139;-81
2022/03/23 10:58:21;;;;;;;21.48;17.85;;;;;;;37.76;11.55;102975.81;5263045;28;20051;-81
2022/03/23 11:00:58;;;;;;;21.98;17.85;;;;;;;36.82;12.27;102969.34;5280884;28;20368;-81
2022/03/23 11:03:43;;;;;;;20.25;18.30;;;;;;;39.39;11.26;102961.84;5281758;28;20120;-81
2022/03/23 11:06:17;;;;;;;21.15;18.75;;;;;;;36.24;12.35;102963.66;5281952;28;20180;-81
2022/03/23 11:08:48;;;;;;;19.52;17.48;;;;;;;37.31;11.93;102959.81;5262049;28;20398;-81
2022/03/23 11:16:45;;;;;;;19.30;17.40;;;;;;;38.81;11.00;102967.94;5282306;28;20153;-81
2022/03/23 11:19:26;;;;;;;18.83;17.02;;;;;;;40.13;10.67;102952.66;5279830;28;20333;-81
2022/03/23 11:22:12;;;;;;;20.25;18.13;;;;;;;38.92;10.74;102960.38;5280278;28;20386;-82
2022/03/23 11:24:47;;;;;;;19.17;17.15;;;;;;;37.58;10.88;102954.88;5262263;28;20082;-83
2022/03/23 11:27:19;;;;;;;15.90;14.25;;;;;;;40.05;9.28;102949.38;5258642;28;20041;-82
2022/03/23 11:29:51;;;;;;;17.30;15.60;;;;;;;40.05;9.18;102946.59;5282113;28;20082;-82
2022/03/23 11:32:28;;;;;;;18.30;16.35;;;;;;;41.07;9.76;102954.16;5280052;28;20025;-81
2022/03/23 11:35:04;;;;;;;18.17;16.52;;;;;;;40.02;9.86;102944.38;5263114;28;20436;-80
2022/03/23 11:37:37;;;;;;;19.75;17.77;;;;;;;40.19;9.91;102943.13;5280927;28;20404;-81
2022/03/23 11:40:09;;;;;;;17.35;15.57;;;;;;;40.67;9.34;102939.53;5282136;28;20020;-80
2022/03/23 11:42:41;;;;;;;36.47;16.67;;;;;;;38.63;10.60;102941.53;5263136;28;20453;-81
2022/03/23 11:45:14;;;;;;;17.48;14.70;;;;;;;40.29;9.45;102937.44;5276053;28;20024;-80
2022/03/23 11:47:53;;;;;;;16.45;14.95;;;;;;;39.65;9.92;102939.38;5273625;28;20092;-80
2022/03/23 11:50:49;;;;;;;17.08;15.27;;;;;;;41.19;9.57;102935.78;5283029;28;20560;-79
2022/03/23 11:53:26;;;;;;;17.63;15.82;;;;;;;40.82;9.39;102928.19;5263629;28;20394;-80